APL New Jersey — A8NM6 — position and weather

sailwx.info

Track history (hours):
 
Tides and Currents Weather Stations Pressure Air Temp Water Temp Dewpoint Dewpoint Depression Visibility Wind Speed Wind Dir Waves Ship Positions

APL New Jersey

Last reported at 2017-Nov-18 12:27 UTC. Time now 2017-Nov-18 23:43 UTC.
Position N 31°25' E 032°18'.

Length 293 m; draft 13 m.

Type: Ship (hazmat cat A). MMSI: 636013522.

Date/timePositionNaut miles runAvg speedWind from/ knotsBaromVisibWave heightAir tempDewpointWater temp
2017-Nov-18 12:27N 31°25' E 032°18'0 0.1
2017-Nov-18 11:57N 31°25' E 032°18'0 0.1
2017-Nov-18 11:30N 31°25' E 032°18'0 0.1
2017-Nov-18 10:52N 31°25' E 032°18'1 1.2
2017-Nov-18 10:12N 31°25' E 032°18'210.3
2017-Nov-18 10:00N 31°27' E 032°16'713.7
2017-Nov-18 09:30N 31°32' E 032°12'713.5
2017-Nov-18 09:00N 31°37' E 032°06'913.1
2017-Nov-18 08:18N 31°40' E 031°56'513.0
2017-Nov-18 07:55N 31°39' E 031°50'512.5
2017-Nov-18 07:30N 31°35' E 031°47'610.1
2017-Nov-18 06:55N 31°29' E 031°46'1 3.0
2017-Nov-18 06:27N 31°28' E 031°46'0 0.0
2017-Nov-17 19:12N 31°27' E 031°46'0 0.0
2017-Nov-17 19:00N 31°27' E 031°46'0 0.0
2017-Nov-17 10:51N 31°28' E 031°46'0 0.0
2017-Nov-17 10:21N 31°27' E 031°46'0 0.0
2017-Nov-17 10:00N 31°27' E 031°46'0 0.0
2017-Nov-17 09:30N 31°28' E 031°46'0 0.0
2017-Nov-17 08:51N 31°27' E 031°46'0 0.0
2017-Nov-17 07:18N 31°27' E 031°46'0 0.0
2017-Nov-17 07:00N 31°27' E 031°46'0 0.0
2017-Nov-17 04:36N 31°28' E 031°46'0 0.1
2017-Nov-17 04:30N 31°27' E 031°46'0 0.0
2017-Nov-16 23:24N 31°27' E 031°46'0 0.0
2017-Nov-16 22:54N 31°27' E 031°46'0 1.0
2017-Nov-16 22:28N 31°28' E 031°46'3 5.6
2017-Nov-16 22:00N 31°30' E 031°46'9 4.3
2017-Nov-16 19:55N 31°39' E 031°46'4 9.5
2017-Nov-16 19:28N 31°43' E 031°43'4 9.4
2017-Nov-16 19:00N 31°46' E 031°39'21916.3
2017-Nov-16 05:34N 32°53' E 027°33'119.2
2017-Nov-16 05:31N 32°53' E 027°32'65217.4
2017-Nov-14 16:04N 35°43' E 014°50'617.9
2017-Nov-14 15:45N 35°45' E 014°43'417.5
2017-Nov-14 15:30N 35°46' E 014°38'610.9
2017-Nov-14 15:00N 35°49' E 014°32'0 0.6
2017-Nov-14 14:28N 35°49' E 014°32'0 0.0
2017-Nov-14 13:58N 35°49' E 014°32'0 0.0
2017-Nov-14 13:25N 35°49' E 014°32'0 0.0
2017-Nov-14 12:58N 35°49' E 014°32'0 0.0
2017-Nov-14 12:28N 35°49' E 014°32'0 0.0
2017-Nov-14 10:49N 35°49' E 014°32'0 0.0
2017-Nov-14 10:25N 35°49' E 014°32'0 0.0
2017-Nov-14 09:25N 35°49' E 014°32'0 0.0
2017-Nov-14 08:46N 35°49' E 014°32'0 0.0
2017-Nov-14 06:55N 35°49' E 014°32'0 0.0
2017-Nov-14 06:28N 35°49' E 014°32'0 0.0
2017-Nov-14 05:55N 35°49' E 014°32'0 0.0
2017-Nov-14 05:28N 35°49' E 014°32'0 0.0
2017-Nov-14 04:55N 35°49' E 014°32'0 0.0
2017-Nov-14 04:25N 35°49' E 014°32'0 0.0
2017-Nov-14 03:46N 35°49' E 014°32'0 0.0
2017-Nov-14 03:28N 35°49' E 014°32'0 0.0
2017-Nov-14 02:58N 35°49' E 014°32'49410.1
2017-Nov-12 02:00N 44°03' E 014°06'918.6
2017-Nov-12 01:30N 44°11' E 013°59'918.6
2017-Nov-12 01:00N 44°18' E 013°51'918.8
2017-Nov-12 00:30N 44°26' E 013°44'918.9
2017-Nov-12 00:00N 44°34' E 013°37'918.8
2017-Nov-11 23:30N 44°41' E 013°29'1019.0
2017-Nov-11 23:00N 44°49' E 013°22'919.0
2017-Nov-11 22:31N 44°57' E 013°14'1019.1
2017-Nov-11 22:00N 45°05' E 013°06'918.6
2017-Nov-11 21:30N 45°14' E 013°02'918.0
2017-Nov-11 21:00N 45°23' E 013°01'918.9
2017-Nov-11 20:30N 45°29' E 013°11'918.8
2017-Nov-11 20:00N 45°35' E 013°22'918.9
2017-Nov-11 19:30N 45°39' E 013°35'714.6
2017-Nov-11 19:00N 45°34' E 013°42'1 2.2
2017-Nov-11 18:30N 45°33' E 013°44'0 0.3
2017-Nov-11 17:59N 45°33' E 013°44'0 0.0
2017-Nov-11 17:29N 45°33' E 013°44'0 0.0
2017-Nov-11 16:59N 45°33' E 013°44'0 0.0
2017-Nov-11 16:23N 45°33' E 013°44'0 0.0
2017-Nov-11 15:59N 45°33' E 013°44'0 0.0
2017-Nov-11 15:29N 45°33' E 013°44'0 0.0
2017-Nov-11 14:59N 45°33' E 013°44'0 0.0
2017-Nov-11 14:29N 45°33' E 013°44'0 0.0
2017-Nov-11 13:59N 45°33' E 013°44'0 0.0
2017-Nov-11 13:29N 45°33' E 013°44'0 0.0
2017-Nov-11 12:59N 45°33' E 013°44'0 0.0
2017-Nov-11 12:29N 45°33' E 013°44'0 0.0
2017-Nov-11 11:53N 45°33' E 013°44'0 0.0
2017-Nov-11 11:29N 45°33' E 013°44'0 0.0
2017-Nov-11 10:56N 45°33' E 013°44'0 0.0
2017-Nov-11 10:29N 45°33' E 013°44'0 0.0
2017-Nov-11 09:50N 45°33' E 013°44'0 0.0
2017-Nov-11 09:29N 45°33' E 013°44'0 0.0
2017-Nov-11 08:50N 45°33' E 013°44'0 0.0
2017-Nov-11 08:29N 45°33' E 013°44'0 0.0
2017-Nov-11 07:53N 45°33' E 013°44'0 0.0
2017-Nov-11 07:29N 45°33' E 013°44'0 0.0
2017-Nov-11 06:59N 45°33' E 013°44'0 0.0
2017-Nov-11 06:29N 45°33' E 013°44'0 0.0
2017-Nov-11 05:59N 45°33' E 013°44'0 0.0
2017-Nov-11 05:29N 45°33' E 013°44'0 0.0
2017-Nov-11 04:59N 45°33' E 013°44'0 0.0
2017-Nov-11 04:26N 45°33' E 013°44'0 0.0
2017-Nov-11 03:59N 45°33' E 013°44'0 0.0
2017-Nov-11 03:29N 45°33' E 013°44'0 0.1
2017-Nov-11 02:59N 45°33' E 013°44'0 0.0
2017-Nov-11 02:29N 45°33' E 013°44'0 0.0
2017-Nov-11 01:59N 45°33' E 013°44'0 0.0
2017-Nov-11 01:29N 45°33' E 013°44'0 0.0
2017-Nov-11 00:53N 45°33' E 013°44'0 0.0
2017-Nov-11 00:26N 45°33' E 013°44'0 0.0
2017-Nov-10 23:53N 45°33' E 013°44'0 0.0
2017-Nov-10 23:26N 45°33' E 013°44'0 0.0
2017-Nov-10 22:59N 45°33' E 013°44'0 0.0
2017-Nov-10 22:26N 45°33' E 013°44'0 0.0
2017-Nov-10 21:59N 45°33' E 013°44'0 0.0
2017-Nov-10 21:29N 45°33' E 013°44'0 0.0
2017-Nov-10 20:59N 45°33' E 013°44'0 0.1
2017-Nov-10 20:31N 45°33' E 013°44'2 4.0
2017-Nov-10 20:01N 45°34' E 013°41'612.9
2017-Nov-10 19:30N 45°34' E 013°32'1019.4
2017-Nov-10 19:00N 45°30' E 013°20'1121.2
2017-Nov-10 18:31N 45°25' E 013°06'1121.3
2017-Nov-10 18:00N 45°21' E 012°52'1021.0
2017-Nov-10 17:30N 45°16' E 012°39'816.5
2017-Nov-10 17:00N 45°17' E 012°27'612.3
2017-Nov-10 16:30N 45°20' E 012°20'4 7.4
2017-Nov-10 16:00N 45°22' E 012°15'3 6.7
2017-Nov-10 15:30N 45°25' E 012°16'2 3.7
2017-Nov-10 15:00N 45°27' E 012°15'0 0.9
2017-Nov-10 14:30N 45°27' E 012°15'0 0.0
2017-Nov-10 14:00N 45°27' E 012°15'0 0.0
2017-Nov-10 13:30N 45°27' E 012°15'0 0.0
2017-Nov-10 13:00N 45°27' E 012°15'0 0.0
2017-Nov-10 12:30N 45°27' E 012°15'0 0.0
2017-Nov-10 12:00N 45°27' E 012°15'0 0.0
2017-Nov-10 11:30N 45°27' E 012°15'0 0.0
2017-Nov-10 11:00N 45°27' E 012°15'0 0.0
2017-Nov-10 10:30N 45°27' E 012°15'0 0.0
2017-Nov-10 10:00N 45°27' E 012°15'0 0.0
2017-Nov-10 09:30N 45°27' E 012°15'0 0.0
2017-Nov-10 09:00N 45°27' E 012°15'0 0.0
2017-Nov-10 08:30N 45°27' E 012°15'0 0.0
2017-Nov-10 08:00N 45°27' E 012°15'0 0.0
2017-Nov-10 07:30N 45°27' E 012°15'0 0.0
2017-Nov-10 07:00N 45°27' E 012°15'0 0.0
2017-Nov-10 06:30N 45°27' E 012°15'0 0.0
2017-Nov-10 06:00N 45°27' E 012°15'0 0.0
2017-Nov-10 05:30N 45°27' E 012°15'0 0.0
2017-Nov-10 05:00N 45°27' E 012°15'0 0.0
2017-Nov-10 04:30N 45°27' E 012°15'0 0.0
2017-Nov-10 04:00N 45°27' E 012°15'0 0.0
2017-Nov-10 03:30N 45°27' E 012°15'0 0.0
2017-Nov-10 03:00N 45°27' E 012°15'0 0.0
2017-Nov-10 02:30N 45°27' E 012°15'0 0.0
2017-Nov-10 02:00N 45°27' E 012°15'0 0.0
2017-Nov-10 01:30N 45°27' E 012°15'0 0.0
2017-Nov-10 01:00N 45°27' E 012°15'0 0.0
2017-Nov-10 00:30N 45°27' E 012°15'0 0.0
2017-Nov-10 00:00N 45°27' E 012°15'0 0.0
2017-Nov-09 23:30N 45°27' E 012°15'0 0.0
2017-Nov-09 23:00N 45°27' E 012°15'0 0.0
2017-Nov-09 22:30N 45°27' E 012°15'0 0.0
2017-Nov-09 22:00N 45°27' E 012°15'0 0.0
2017-Nov-09 21:21N 45°27' E 012°15'0 0.0
2017-Nov-09 21:00N 45°27' E 012°15'0 0.1
2017-Nov-09 20:30N 45°27' E 012°15'0 0.1
2017-Nov-09 20:00N 45°27' E 012°15'0 0.0
2017-Nov-09 19:30N 45°27' E 012°15'0 0.0
2017-Nov-09 19:00N 45°27' E 012°15'0 0.0
2017-Nov-09 18:30N 45°27' E 012°15'0 0.0
2017-Nov-09 17:57N 45°27' E 012°15'0 0.0
2017-Nov-09 17:30N 45°27' E 012°15'0 0.0
2017-Nov-09 17:00N 45°27' E 012°15'0 0.0
2017-Nov-09 16:30N 45°27' E 012°15'0 0.0
2017-Nov-09 16:00N 45°27' E 012°15'0 0.0
2017-Nov-09 15:30N 45°27' E 012°15'0 0.0
2017-Nov-09 15:00N 45°27' E 012°15'0 0.0
2017-Nov-09 14:30N 45°27' E 012°15'0 0.0
2017-Nov-09 14:00N 45°27' E 012°15'0 0.0
2017-Nov-09 13:30N 45°27' E 012°15'0 0.0
2017-Nov-09 13:00N 45°27' E 012°15'0 0.0
2017-Nov-09 12:30N 45°27' E 012°15'0 0.0
2017-Nov-09 12:00N 45°27' E 012°15'0 0.0
2017-Nov-09 11:30N 45°27' E 012°15'0 0.0
2017-Nov-09 11:00N 45°27' E 012°15'0 0.0
2017-Nov-09 10:30N 45°27' E 012°15'0 0.0
2017-Nov-09 09:57N 45°27' E 012°15'0 0.0
2017-Nov-09 09:30N 45°27' E 012°15'0 0.0
2017-Nov-09 09:00N 45°27' E 012°15'0 0.0
2017-Nov-09 08:30N 45°27' E 012°15'0 0.0
2017-Nov-09 08:00N 45°27' E 012°15'0 0.0
2017-Nov-09 07:27N 45°27' E 012°15'1 1.5
2017-Nov-09 07:00N 45°27' E 012°15'2 4.0
2017-Nov-09 06:30N 45°25' E 012°16'4 7.2
2017-Nov-09 06:00N 45°21' E 012°15'510.0
2017-Nov-09 05:30N 45°20' E 012°22'2 3.2
2017-Nov-09 05:00N 45°19' E 012°24'3 6.8
2017-Nov-09 04:30N 45°18' E 012°29'613.1
2017-Nov-09 04:00N 45°14' E 012°36'815.5
2017-Nov-09 03:30N 45°09' E 012°45'815.9
2017-Nov-09 03:00N 45°04' E 012°54'816.5
2017-Nov-09 02:30N 44°59' E 013°02'816.6
2017-Nov-09 02:00N 44°55' E 013°13'816.7
2017-Nov-09 01:30N 44°53' E 013°24'816.8
2017-Nov-09 01:00N 44°49' E 013°34'816.8
2017-Nov-09 00:30N 44°44' E 013°44'816.1
2017-Nov-09 00:00N 44°41' E 013°55'814.7
2017-Nov-08 23:25N 44°47' E 014°04'1016.8
2017-Nov-08 22:49N 44°56' E 014°11'716.8
2017-Nov-08 22:24N 45°03' E 014°13'816.1
2017-Nov-08 21:55N 45°10' E 014°15'814.9
2017-Nov-08 21:25N 45°15' E 014°23'  
Track history (hours):
 
Tides and Currents Weather Stations Pressure Air Temp Water Temp Dewpoint Dewpoint Depression Visibility Wind Speed Wind Dir Waves Ship Positions

APL New Jersey

Last reported at 2017-Nov-18 12:27 UTC. Time now 2017-Nov-18 23:43 UTC.
Position N 31°25' E 032°18'.

Length 293 m; draft 13 m.

Type: Ship (hazmat cat A). MMSI: 636013522.

Date/timePositionNaut miles runAvg speedWind from/ knotsBaromVisibWave heightAir tempDewpointWater temp
2017-Nov-18 12:27N 31°25' E 032°18'0 0.1
2017-Nov-18 11:57N 31°25' E 032°18'0 0.1
2017-Nov-18 11:30N 31°25' E 032°18'0 0.1
2017-Nov-18 10:52N 31°25' E 032°18'1 1.2
2017-Nov-18 10:12N 31°25' E 032°18'210.3
2017-Nov-18 10:00N 31°27' E 032°16'713.7
2017-Nov-18 09:30N 31°32' E 032°12'713.5
2017-Nov-18 09:00N 31°37' E 032°06'913.1
2017-Nov-18 08:18N 31°40' E 031°56'513.0
2017-Nov-18 07:55N 31°39' E 031°50'512.5
2017-Nov-18 07:30N 31°35' E 031°47'610.1
2017-Nov-18 06:55N 31°29' E 031°46'1 3.0
2017-Nov-18 06:27N 31°28' E 031°46'0 0.0
2017-Nov-17 19:12N 31°27' E 031°46'0 0.0
2017-Nov-17 19:00N 31°27' E 031°46'0 0.0
2017-Nov-17 10:51N 31°28' E 031°46'0 0.0
2017-Nov-17 10:21N 31°27' E 031°46'0 0.0
2017-Nov-17 10:00N 31°27' E 031°46'0 0.0
2017-Nov-17 09:30N 31°28' E 031°46'0 0.0
2017-Nov-17 08:51N 31°27' E 031°46'0 0.0
2017-Nov-17 07:18N 31°27' E 031°46'0 0.0
2017-Nov-17 07:00N 31°27' E 031°46'0 0.0
2017-Nov-17 04:36N 31°28' E 031°46'0 0.1
2017-Nov-17 04:30N 31°27' E 031°46'0 0.0
2017-Nov-16 23:24N 31°27' E 031°46'0 0.0
2017-Nov-16 22:54N 31°27' E 031°46'0 1.0
2017-Nov-16 22:28N 31°28' E 031°46'3 5.6
2017-Nov-16 22:00N 31°30' E 031°46'9 4.3
2017-Nov-16 19:55N 31°39' E 031°46'4 9.5
2017-Nov-16 19:28N 31°43' E 031°43'4 9.4
2017-Nov-16 19:00N 31°46' E 031°39'21916.3
2017-Nov-16 05:34N 32°53' E 027°33'119.2
2017-Nov-16 05:31N 32°53' E 027°32'65217.4
2017-Nov-14 16:04N 35°43' E 014°50'617.9
2017-Nov-14 15:45N 35°45' E 014°43'417.5
2017-Nov-14 15:30N 35°46' E 014°38'610.9
2017-Nov-14 15:00N 35°49' E 014°32'0 0.6
2017-Nov-14 14:28N 35°49' E 014°32'0 0.0
2017-Nov-14 13:58N 35°49' E 014°32'0 0.0
2017-Nov-14 13:25N 35°49' E 014°32'0 0.0
2017-Nov-14 12:58N 35°49' E 014°32'0 0.0
2017-Nov-14 12:28N 35°49' E 014°32'0 0.0
2017-Nov-14 10:49N 35°49' E 014°32'0 0.0
2017-Nov-14 10:25N 35°49' E 014°32'0 0.0
2017-Nov-14 09:25N 35°49' E 014°32'0 0.0
2017-Nov-14 08:46N 35°49' E 014°32'0 0.0
2017-Nov-14 06:55N 35°49' E 014°32'0 0.0
2017-Nov-14 06:28N 35°49' E 014°32'0 0.0
2017-Nov-14 05:55N 35°49' E 014°32'0 0.0
2017-Nov-14 05:28N 35°49' E 014°32'0 0.0
2017-Nov-14 04:55N 35°49' E 014°32'0 0.0
2017-Nov-14 04:25N 35°49' E 014°32'0 0.0
2017-Nov-14 03:46N 35°49' E 014°32'0 0.0
2017-Nov-14 03:28N 35°49' E 014°32'0 0.0
2017-Nov-14 02:58N 35°49' E 014°32'49410.1
2017-Nov-12 02:00N 44°03' E 014°06'918.6
2017-Nov-12 01:30N 44°11' E 013°59'918.6
2017-Nov-12 01:00N 44°18' E 013°51'918.8
2017-Nov-12 00:30N 44°26' E 013°44'918.9
2017-Nov-12 00:00N 44°34' E 013°37'918.8
2017-Nov-11 23:30N 44°41' E 013°29'1019.0
2017-Nov-11 23:00N 44°49' E 013°22'919.0
2017-Nov-11 22:31N 44°57' E 013°14'1019.1
2017-Nov-11 22:00N 45°05' E 013°06'918.6
2017-Nov-11 21:30N 45°14' E 013°02'918.0
2017-Nov-11 21:00N 45°23' E 013°01'918.9
2017-Nov-11 20:30N 45°29' E 013°11'918.8
2017-Nov-11 20:00N 45°35' E 013°22'918.9
2017-Nov-11 19:30N 45°39' E 013°35'714.6
2017-Nov-11 19:00N 45°34' E 013°42'1 2.2
2017-Nov-11 18:30N 45°33' E 013°44'0 0.3
2017-Nov-11 17:59N 45°33' E 013°44'0 0.0
2017-Nov-11 17:29N 45°33' E 013°44'0 0.0
2017-Nov-11 16:59N 45°33' E 013°44'0 0.0
2017-Nov-11 16:23N 45°33' E 013°44'0 0.0
2017-Nov-11 15:59N 45°33' E 013°44'0 0.0
2017-Nov-11 15:29N 45°33' E 013°44'0 0.0
2017-Nov-11 14:59N 45°33' E 013°44'0 0.0
2017-Nov-11 14:29N 45°33' E 013°44'0 0.0
2017-Nov-11 13:59N 45°33' E 013°44'0 0.0
2017-Nov-11 13:29N 45°33' E 013°44'0 0.0
2017-Nov-11 12:59N 45°33' E 013°44'0 0.0
2017-Nov-11 12:29N 45°33' E 013°44'0 0.0
2017-Nov-11 11:53N 45°33' E 013°44'0 0.0
2017-Nov-11 11:29N 45°33' E 013°44'0 0.0
2017-Nov-11 10:56N 45°33' E 013°44'0 0.0
2017-Nov-11 10:29N 45°33' E 013°44'0 0.0
2017-Nov-11 09:50N 45°33' E 013°44'0 0.0
2017-Nov-11 09:29N 45°33' E 013°44'0 0.0
2017-Nov-11 08:50N 45°33' E 013°44'0 0.0
2017-Nov-11 08:29N 45°33' E 013°44'0 0.0
2017-Nov-11 07:53N 45°33' E 013°44'0 0.0
2017-Nov-11 07:29N 45°33' E 013°44'0 0.0
2017-Nov-11 06:59N 45°33' E 013°44'0 0.0
2017-Nov-11 06:29N 45°33' E 013°44'0 0.0
2017-Nov-11 05:59N 45°33' E 013°44'0 0.0
2017-Nov-11 05:29N 45°33' E 013°44'0 0.0
2017-Nov-11 04:59N 45°33' E 013°44'0 0.0
2017-Nov-11 04:26N 45°33' E 013°44'0 0.0
2017-Nov-11 03:59N 45°33' E 013°44'0 0.0
2017-Nov-11 03:29N 45°33' E 013°44'0 0.1
2017-Nov-11 02:59N 45°33' E 013°44'0 0.0
2017-Nov-11 02:29N 45°33' E 013°44'0 0.0
2017-Nov-11 01:59N 45°33' E 013°44'0 0.0
2017-Nov-11 01:29N 45°33' E 013°44'0 0.0
2017-Nov-11 00:53N 45°33' E 013°44'0 0.0
2017-Nov-11 00:26N 45°33' E 013°44'0 0.0
2017-Nov-10 23:53N 45°33' E 013°44'0 0.0
2017-Nov-10 23:26N 45°33' E 013°44'0 0.0
2017-Nov-10 22:59N 45°33' E 013°44'0 0.0
2017-Nov-10 22:26N 45°33' E 013°44'0 0.0
2017-Nov-10 21:59N 45°33' E 013°44'0 0.0
2017-Nov-10 21:29N 45°33' E 013°44'0 0.0
2017-Nov-10 20:59N 45°33' E 013°44'0 0.1
2017-Nov-10 20:31N 45°33' E 013°44'2 4.0
2017-Nov-10 20:01N 45°34' E 013°41'612.9
2017-Nov-10 19:30N 45°34' E 013°32'1019.4
2017-Nov-10 19:00N 45°30' E 013°20'1121.2
2017-Nov-10 18:31N 45°25' E 013°06'1121.3
2017-Nov-10 18:00N 45°21' E 012°52'1021.0
2017-Nov-10 17:30N 45°16' E 012°39'816.5
2017-Nov-10 17:00N 45°17' E 012°27'612.3
2017-Nov-10 16:30N 45°20' E 012°20'4 7.4
2017-Nov-10 16:00N 45°22' E 012°15'3 6.7
2017-Nov-10 15:30N 45°25' E 012°16'2 3.7
2017-Nov-10 15:00N 45°27' E 012°15'0 0.9
2017-Nov-10 14:30N 45°27' E 012°15'0 0.0
2017-Nov-10 14:00N 45°27' E 012°15'0 0.0
2017-Nov-10 13:30N 45°27' E 012°15'0 0.0
2017-Nov-10 13:00N 45°27' E 012°15'0 0.0
2017-Nov-10 12:30N 45°27' E 012°15'0 0.0
2017-Nov-10 12:00N 45°27' E 012°15'0 0.0
2017-Nov-10 11:30N 45°27' E 012°15'0 0.0
2017-Nov-10 11:00N 45°27' E 012°15'0 0.0
2017-Nov-10 10:30N 45°27' E 012°15'0 0.0
2017-Nov-10 10:00N 45°27' E 012°15'0 0.0
2017-Nov-10 09:30N 45°27' E 012°15'0 0.0
2017-Nov-10 09:00N 45°27' E 012°15'0 0.0
2017-Nov-10 08:30N 45°27' E 012°15'0 0.0
2017-Nov-10 08:00N 45°27' E 012°15'0 0.0
2017-Nov-10 07:30N 45°27' E 012°15'0 0.0
2017-Nov-10 07:00N 45°27' E 012°15'0 0.0
2017-Nov-10 06:30N 45°27' E 012°15'0 0.0
2017-Nov-10 06:00N 45°27' E 012°15'0 0.0
2017-Nov-10 05:30N 45°27' E 012°15'0 0.0
2017-Nov-10 05:00N 45°27' E 012°15'0 0.0
2017-Nov-10 04:30N 45°27' E 012°15'0 0.0
2017-Nov-10 04:00N 45°27' E 012°15'0 0.0
2017-Nov-10 03:30N 45°27' E 012°15'0 0.0
2017-Nov-10 03:00N 45°27' E 012°15'0 0.0
2017-Nov-10 02:30N 45°27' E 012°15'0 0.0
2017-Nov-10 02:00N 45°27' E 012°15'0 0.0
2017-Nov-10 01:30N 45°27' E 012°15'0 0.0
2017-Nov-10 01:00N 45°27' E 012°15'0 0.0
2017-Nov-10 00:30N 45°27' E 012°15'0 0.0
2017-Nov-10 00:00N 45°27' E 012°15'0 0.0
2017-Nov-09 23:30N 45°27' E 012°15'0 0.0
2017-Nov-09 23:00N 45°27' E 012°15'0 0.0
2017-Nov-09 22:30N 45°27' E 012°15'0 0.0
2017-Nov-09 22:00N 45°27' E 012°15'0 0.0
2017-Nov-09 21:21N 45°27' E 012°15'0 0.0
2017-Nov-09 21:00N 45°27' E 012°15'0 0.1
2017-Nov-09 20:30N 45°27' E 012°15'0 0.1
2017-Nov-09 20:00N 45°27' E 012°15'0 0.0
2017-Nov-09 19:30N 45°27' E 012°15'0 0.0
2017-Nov-09 19:00N 45°27' E 012°15'0 0.0
2017-Nov-09 18:30N 45°27' E 012°15'0 0.0
2017-Nov-09 17:57N 45°27' E 012°15'0 0.0
2017-Nov-09 17:30N 45°27' E 012°15'0 0.0
2017-Nov-09 17:00N 45°27' E 012°15'0 0.0
2017-Nov-09 16:30N 45°27' E 012°15'0 0.0
2017-Nov-09 16:00N 45°27' E 012°15'0 0.0
2017-Nov-09 15:30N 45°27' E 012°15'0 0.0
2017-Nov-09 15:00N 45°27' E 012°15'0 0.0
2017-Nov-09 14:30N 45°27' E 012°15'0 0.0
2017-Nov-09 14:00N 45°27' E 012°15'0 0.0
2017-Nov-09 13:30N 45°27' E 012°15'0 0.0
2017-Nov-09 13:00N 45°27' E 012°15'0 0.0
2017-Nov-09 12:30N 45°27' E 012°15'0 0.0
2017-Nov-09 12:00N 45°27' E 012°15'0 0.0
2017-Nov-09 11:30N 45°27' E 012°15'0 0.0
2017-Nov-09 11:00N 45°27' E 012°15'0 0.0
2017-Nov-09 10:30N 45°27' E 012°15'0 0.0
2017-Nov-09 09:57N 45°27' E 012°15'0 0.0
2017-Nov-09 09:30N 45°27' E 012°15'0 0.0
2017-Nov-09 09:00N 45°27' E 012°15'0 0.0
2017-Nov-09 08:30N 45°27' E 012°15'0 0.0
2017-Nov-09 08:00N 45°27' E 012°15'0 0.0
2017-Nov-09 07:27N 45°27' E 012°15'1 1.5
2017-Nov-09 07:00N 45°27' E 012°15'2 4.0
2017-Nov-09 06:30N 45°25' E 012°16'4 7.2
2017-Nov-09 06:00N 45°21' E 012°15'510.0
2017-Nov-09 05:30N 45°20' E 012°22'2 3.2
2017-Nov-09 05:00N 45°19' E 012°24'3 6.8
2017-Nov-09 04:30N 45°18' E 012°29'613.1
2017-Nov-09 04:00N 45°14' E 012°36'815.5
2017-Nov-09 03:30N 45°09' E 012°45'815.9
2017-Nov-09 03:00N 45°04' E 012°54'816.5
2017-Nov-09 02:30N 44°59' E 013°02'816.6
2017-Nov-09 02:00N 44°55' E 013°13'816.7
2017-Nov-09 01:30N 44°53' E 013°24'816.8
2017-Nov-09 01:00N 44°49' E 013°34'816.8
2017-Nov-09 00:30N 44°44' E 013°44'816.1
2017-Nov-09 00:00N 44°41' E 013°55'814.7
2017-Nov-08 23:25N 44°47' E 014°04'1016.8
2017-Nov-08 22:49N 44°56' E 014°11'716.8
2017-Nov-08 22:24N 45°03' E 014°13'816.1
2017-Nov-08 21:55N 45°10' E 014°15'814.9
2017-Nov-08 21:25N 45°15' E 014°23'  

Dump ship's entire track history